createdAt,value
2023-04-29T00:01:20.974Z,5.25
2023-04-29T00:03:48.068Z,5.24
2023-04-29T00:06:15.476Z,5.13
2023-04-29T00:08:43.386Z,5.10
2023-04-29T00:11:11.313Z,5.02
2023-04-29T00:13:40.973Z,5.16
2023-04-29T00:16:09.141Z,5.22
2023-04-29T00:18:37.293Z,5.15
2023-04-29T00:21:07.630Z,5.18
2023-04-29T00:23:34.696Z,5.21
2023-04-29T00:26:01.388Z,5.23
2023-04-29T00:28:28.238Z,5.24
2023-04-29T00:30:56.191Z,5.15
2023-04-29T00:33:23.291Z,5.15
2023-04-29T00:35:50.304Z,5.17
2023-04-29T00:38:17.434Z,5.05
2023-04-29T00:40:44.848Z,4.96
2023-04-29T00:43:11.549Z,5.00
2023-04-29T00:45:38.381Z,4.91
2023-04-29T00:48:05.443Z,4.79
2023-04-29T00:50:32.520Z,4.63
2023-04-29T00:53:00.234Z,4.91
2023-04-29T00:55:27.456Z,4.89
2023-04-29T00:57:54.081Z,4.90
2023-04-29T01:00:20.778Z,4.87
2023-04-29T01:02:49.123Z,4.79
2023-04-29T01:05:16.555Z,4.83
2023-04-29T01:07:59.647Z,4.58
2023-04-29T01:10:32.219Z,4.71
2023-04-29T01:13:19.332Z,4.82
2023-04-29T01:16:03.886Z,4.50
2023-04-29T01:18:39.415Z,4.74
2023-04-29T01:21:06.362Z,4.38
2023-04-29T01:23:33.514Z,4.68
2023-04-29T01:26:00.778Z,4.69
2023-04-29T01:29:02.399Z,4.64
2023-04-29T01:31:47.406Z,4.57
2023-04-29T01:34:34.312Z,4.43
2023-04-29T01:37:01.047Z,4.49
2023-04-29T01:39:36.292Z,4.38
2023-04-29T01:42:34.875Z,4.16
2023-04-29T01:45:06.545Z,3.65
2023-04-29T01:47:34.100Z,3.94
2023-04-29T01:50:01.353Z,4.05
2023-04-29T01:52:28.786Z,3.69
2023-04-29T01:54:55.660Z,3.95
2023-04-29T01:57:22.314Z,4.12
2023-04-29T01:59:48.906Z,4.08
2023-04-29T02:02:15.866Z,4.19
2023-04-29T02:04:43.157Z,4.17
2023-04-29T02:07:09.972Z,4.21
2023-04-29T02:09:36.725Z,3.98
2023-04-29T02:12:04.793Z,4.00
2023-04-29T02:14:31.860Z,3.82
2023-04-29T02:16:58.594Z,3.93
2023-04-29T02:19:25.380Z,3.98
2023-04-29T02:21:52.163Z,3.83
2023-04-29T02:24:18.789Z,3.81
2023-04-29T02:26:45.833Z,3.75
2023-04-29T02:29:12.541Z,3.57
2023-04-29T02:31:39.238Z,3.11
2023-04-29T02:34:05.934Z,2.99
2023-04-29T02:36:32.991Z,2.92
2023-04-29T02:39:00.571Z,2.73
2023-04-29T02:41:27.347Z,2.84
2023-04-29T02:43:54.025Z,3.03
2023-04-29T02:46:20.739Z,3.04
2023-04-29T02:48:47.611Z,3.01
2023-04-29T02:51:14.913Z,2.88
2023-04-29T02:53:41.587Z,2.89
2023-04-29T02:56:08.290Z,2.95
2023-04-29T02:58:34.924Z,2.97
2023-04-29T03:01:01.580Z,2.97
2023-04-29T03:03:28.441Z,2.99
2023-04-29T03:05:55.167Z,2.88
2023-04-29T03:08:22.517Z,2.86
2023-04-29T03:10:49.117Z,2.97
2023-04-29T03:13:16.114Z,2.95
2023-04-29T03:15:42.834Z,2.96
2023-04-29T03:18:09.865Z,2.93
2023-04-29T03:20:37.104Z,2.82
2023-04-29T03:23:03.954Z,2.83
2023-04-29T03:25:31.450Z,2.71
2023-04-29T03:27:58.091Z,2.84
2023-04-29T03:30:24.829Z,2.81
2023-04-29T03:32:51.584Z,2.86
2023-04-29T03:35:18.382Z,2.79
2023-04-29T03:37:45.337Z,2.91
2023-04-29T03:40:12.879Z,2.92
2023-04-29T03:42:39.847Z,2.96
2023-04-29T03:45:07.151Z,3.08
2023-04-29T03:47:33.937Z,3.14
2023-04-29T03:50:00.558Z,3.01
2023-04-29T03:52:27.469Z,3.28
2023-04-29T03:54:54.177Z,3.39
2023-04-29T03:57:20.887Z,3.59
2023-04-29T03:59:50.743Z,3.60
2023-04-29T04:02:18.080Z,3.73
2023-04-29T04:04:44.977Z,3.94
2023-04-29T04:07:14.668Z,4.05
2023-04-29T04:09:41.512Z,4.17
2023-04-29T04:12:08.183Z,4.15
2023-04-29T04:14:34.824Z,4.42
2023-04-29T04:17:01.660Z,4.42
2023-04-29T04:19:29.556Z,4.46
2023-04-29T04:21:56.404Z,4.55
2023-04-29T04:24:23.480Z,4.61
2023-04-29T04:26:50.446Z,4.50
2023-04-29T04:29:17.154Z,4.68
2023-04-29T04:31:46.718Z,4.84
2023-04-29T04:34:13.849Z,5.00
2023-04-29T04:36:41.457Z,5.07
2023-04-29T04:39:08.503Z,5.22
2023-04-29T04:41:35.937Z,5.34
2023-04-29T04:44:03.079Z,5.50
2023-04-29T04:46:29.825Z,5.56
2023-04-29T04:48:56.599Z,5.76
2023-04-29T04:51:23.345Z,5.87
2023-04-29T04:53:49.975Z,5.98
2023-04-29T04:56:16.700Z,6.03
2023-04-29T04:58:43.399Z,5.93
2023-04-29T05:01:10.235Z,6.19
2023-04-29T05:03:37.326Z,6.35
2023-04-29T05:06:04.686Z,6.61
2023-04-29T05:08:31.465Z,6.78
2023-04-29T05:10:58.625Z,6.76
2023-04-29T05:13:28.390Z,6.60
2023-04-29T05:15:54.959Z,6.72
2023-04-29T05:18:21.747Z,6.76
2023-04-29T05:20:48.421Z,6.65
2023-04-29T05:23:15.080Z,6.87
2023-04-29T05:25:42.547Z,6.97
2023-04-29T05:28:09.292Z,6.96
2023-04-29T05:30:36.000Z,7.19
2023-04-29T05:33:03.672Z,7.23
2023-04-29T05:35:31.138Z,7.22
2023-04-29T05:37:57.850Z,7.24
2023-04-29T05:40:25.005Z,7.64
2023-04-29T05:42:52.743Z,7.73
2023-04-29T05:45:19.627Z,7.82
2023-04-29T05:47:46.455Z,7.66
2023-04-29T05:50:13.314Z,7.76
2023-04-29T05:52:39.976Z,7.85
2023-04-29T05:55:06.647Z,7.96
2023-04-29T05:57:33.299Z,8.55
2023-04-29T06:00:00.388Z,8.85
2023-04-29T06:02:27.794Z,9.12
2023-04-29T06:04:54.974Z,9.55
2023-04-29T06:07:21.913Z,9.87
2023-04-29T06:09:48.704Z,10.43
2023-04-29T06:12:15.507Z,10.67
2023-04-29T06:14:42.593Z,10.80
2023-04-29T06:17:09.167Z,10.97
2023-04-29T06:19:36.128Z,10.45
2023-04-29T06:22:02.829Z,10.71
2023-04-29T06:24:29.650Z,10.82
2023-04-29T06:26:56.514Z,10.93
2023-04-29T06:29:23.335Z,11.06
2023-04-29T06:31:50.016Z,11.33
2023-04-29T06:34:16.698Z,11.44
2023-04-29T06:36:43.338Z,11.45
2023-04-29T06:39:10.090Z,11.67
2023-04-29T06:41:37.004Z,11.65
2023-04-29T06:44:03.784Z,11.98
2023-04-29T06:46:30.521Z,11.97
2023-04-29T06:48:57.252Z,11.91
2023-04-29T06:51:25.110Z,12.25
2023-04-29T06:53:51.809Z,11.98
2023-04-29T06:56:18.955Z,12.33
2023-04-29T06:58:45.549Z,12.43
2023-04-29T07:01:12.237Z,12.50
2023-04-29T07:03:39.466Z,12.74
2023-04-29T07:06:06.897Z,12.65
2023-04-29T07:08:33.622Z,13.10
2023-04-29T07:11:00.240Z,13.22
2023-04-29T07:13:26.972Z,12.87
2023-04-29T07:15:53.640Z,12.65
2023-04-29T07:18:20.442Z,13.24
2023-04-29T07:20:48.122Z,13.80
2023-04-29T07:23:15.224Z,14.33
2023-04-29T07:25:42.026Z,14.30
2023-04-29T07:28:09.271Z,14.84
2023-04-29T07:30:36.484Z,14.67
2023-04-29T07:33:04.529Z,14.61
2023-04-29T07:35:31.712Z,14.75
2023-04-29T07:37:58.380Z,14.64
2023-04-29T07:40:25.129Z,14.34
2023-04-29T07:42:51.914Z,14.52
2023-04-29T07:45:18.697Z,14.36
2023-04-29T07:47:45.965Z,14.70
2023-04-29T07:50:13.016Z,14.83
2023-04-29T07:52:39.713Z,14.60
2023-04-29T07:55:06.742Z,14.34
2023-04-29T07:57:33.435Z,14.55
2023-04-29T08:00:00.044Z,15.01
2023-04-29T08:02:27.237Z,15.35
2023-04-29T08:04:56.137Z,15.77
2023-04-29T08:07:23.435Z,15.79
2023-04-29T08:09:50.060Z,15.32
2023-04-29T08:12:16.796Z,15.39
2023-04-29T08:14:43.474Z,16.17
2023-04-29T08:17:10.227Z,16.11
2023-04-29T08:19:36.869Z,15.87
2023-04-29T08:22:04.455Z,16.11
2023-04-29T08:24:31.262Z,15.56
2023-04-29T08:26:59.261Z,15.76
2023-04-29T08:29:26.093Z,15.82
2023-04-29T08:31:53.113Z,15.68
2023-04-29T08:34:19.880Z,15.74
2023-04-29T08:36:46.619Z,15.86
2023-04-29T08:39:13.310Z,15.91
2023-04-29T08:41:40.064Z,15.13
2023-04-29T08:44:06.960Z,15.36
2023-04-29T08:46:33.860Z,15.65
2023-04-29T08:49:04.524Z,15.76
2023-04-29T08:51:33.262Z,15.84
2023-04-29T08:54:00.128Z,16.26
2023-04-29T08:56:28.881Z,16.19
2023-04-29T08:58:58.962Z,16.32
2023-04-29T09:01:28.901Z,16.46
2023-04-29T09:04:10.084Z,16.44
2023-04-29T09:06:37.033Z,16.39
2023-04-29T09:09:04.350Z,15.88
2023-04-29T09:11:31.534Z,16.13
2023-04-29T09:14:02.395Z,16.03
2023-04-29T09:16:29.462Z,16.16
2023-04-29T09:18:57.031Z,16.49
2023-04-29T09:21:25.466Z,16.61
2023-04-29T09:23:55.008Z,16.88
2023-04-29T09:26:22.588Z,17.18
2023-04-29T09:29:06.247Z,17.41
2023-04-29T09:31:32.819Z,17.18
2023-04-29T09:33:59.438Z,17.32
2023-04-29T09:36:45.665Z,17.76
2023-04-29T09:39:17.956Z,17.92
2023-04-29T09:41:50.644Z,18.17
2023-04-29T09:44:17.406Z,18.71
2023-04-29T09:46:44.367Z,18.96
2023-04-29T09:49:25.706Z,18.44
2023-04-29T09:51:57.887Z,18.36
2023-04-29T09:54:26.433Z,17.66
2023-04-29T09:56:53.520Z,17.53
2023-04-29T09:59:21.071Z,17.58
2023-04-29T10:01:54.161Z,17.73
2023-04-29T10:04:22.887Z,17.19
2023-04-29T10:06:51.519Z,17.07
2023-04-29T10:09:19.568Z,16.81
2023-04-29T10:11:50.885Z,16.94
2023-04-29T10:14:22.786Z,17.25
2023-04-29T10:16:54.554Z,17.56
2023-04-29T10:19:28.266Z,17.55
2023-04-29T10:22:00.765Z,17.64
2023-04-29T10:24:27.558Z,17.72
2023-04-29T10:26:56.782Z,17.74
2023-04-29T10:29:27.487Z,17.52
2023-04-29T10:31:56.114Z,17.51
2023-04-29T10:34:24.624Z,17.74
2023-04-29T10:36:51.764Z,17.88
2023-04-29T10:39:36.400Z,17.93
2023-04-29T10:42:06.163Z,17.69
2023-04-29T10:44:32.727Z,17.94
2023-04-29T10:47:28.669Z,18.01
2023-04-29T10:50:05.637Z,18.11
2023-04-29T10:52:51.798Z,17.89
2023-04-29T10:55:18.489Z,18.14
2023-04-29T10:57:45.047Z,18.15
2023-04-29T11:00:29.178Z,18.06
2023-04-29T11:02:57.052Z,17.79
2023-04-29T11:05:35.205Z,17.73
2023-04-29T11:08:23.031Z,17.73
2023-04-29T11:10:54.351Z,17.70
2023-04-29T11:13:22.239Z,17.66
2023-04-29T11:15:49.191Z,17.66
2023-04-29T11:18:16.170Z,17.56
2023-04-29T11:21:07.434Z,17.40
2023-04-29T11:23:35.688Z,17.31
2023-04-29T11:26:03.020Z,17.10
2023-04-29T11:28:31.508Z,16.65
2023-04-29T11:30:59.183Z,16.87
2023-04-29T11:33:29.910Z,16.83
2023-04-29T11:35:57.057Z,16.94
2023-04-29T11:38:28.051Z,16.88
2023-04-29T11:40:59.429Z,16.54
2023-04-29T11:43:26.276Z,16.34
2023-04-29T11:45:54.185Z,16.31
2023-04-29T11:48:21.953Z,16.38
2023-04-29T11:50:59.047Z,16.66
2023-04-29T11:53:28.104Z,16.63
2023-04-29T11:55:55.398Z,16.82
2023-04-29T11:58:23.406Z,16.79
2023-04-29T12:00:50.936Z,16.91
2023-04-29T12:03:20.789Z,16.40
2023-04-29T12:05:48.003Z,16.69
2023-04-29T12:08:15.085Z,16.88
2023-04-29T12:10:41.788Z,16.93
2023-04-29T12:13:10.202Z,17.16
2023-04-29T12:15:38.394Z,17.22
2023-04-29T12:18:07.425Z,17.14
2023-04-29T12:20:34.574Z,17.00
2023-04-29T12:23:24.256Z,17.14
2023-04-29T12:25:55.936Z,17.28
2023-04-29T12:28:23.148Z,17.12
2023-04-29T12:30:51.849Z,16.70
2023-04-29T12:33:25.554Z,16.56
2023-04-29T12:35:53.333Z,16.79
2023-04-29T12:38:30.188Z,16.86
2023-04-29T12:40:59.814Z,16.91
2023-04-29T12:43:30.476Z,16.94
2023-04-29T12:46:04.592Z,16.65
2023-04-29T12:48:33.565Z,16.91
2023-04-29T12:51:01.825Z,16.93
2023-04-29T12:53:32.510Z,17.18
2023-04-29T12:55:59.593Z,17.44
2023-04-29T12:58:30.180Z,17.44
2023-04-29T13:00:57.769Z,17.55
2023-04-29T13:03:24.951Z,17.92
2023-04-29T13:05:53.908Z,18.13
2023-04-29T13:08:21.277Z,17.95
2023-04-29T13:10:48.100Z,17.66
2023-04-29T13:13:14.682Z,17.36
2023-04-29T13:15:41.597Z,17.50
2023-04-29T13:18:08.514Z,17.62
2023-04-29T13:20:40.889Z,17.88
2023-04-29T13:23:08.743Z,18.12
2023-04-29T13:25:35.593Z,18.39
2023-04-29T13:28:02.334Z,18.53
2023-04-29T13:30:28.925Z,18.71
2023-04-29T13:32:59.898Z,18.91
2023-04-29T13:35:31.005Z,18.73
2023-04-29T13:37:57.831Z,18.64
2023-04-29T13:40:27.720Z,18.80
2023-04-29T13:43:02.218Z,18.99
2023-04-29T13:45:38.844Z,18.79
2023-04-29T13:48:20.110Z,18.96
2023-04-29T13:53:41.013Z,19.45
2023-04-29T13:59:19.811Z,19.29
2023-04-29T14:02:15.000Z,19.53
2023-04-29T14:04:12.152Z,19.52
2023-04-29T14:06:39.623Z,19.12
2023-04-29T14:09:06.350Z,19.38
2023-04-29T14:11:36.591Z,19.26
2023-04-29T14:14:03.833Z,18.47
2023-04-29T14:16:30.764Z,18.37
2023-04-29T14:18:57.628Z,17.94
2023-04-29T14:21:24.567Z,18.30
2023-04-29T14:23:51.260Z,18.52
2023-04-29T14:26:27.958Z,18.69
2023-04-29T14:28:59.986Z,18.31
2023-04-29T14:31:28.900Z,18.08
2023-04-29T14:33:59.443Z,17.59
2023-04-29T14:36:29.397Z,17.59
2023-04-29T14:38:56.126Z,17.81
2023-04-29T14:41:22.751Z,17.94
2023-04-29T14:43:49.369Z,18.16
2023-04-29T14:46:16.697Z,18.10
2023-04-29T14:48:43.625Z,18.16
2023-04-29T14:51:10.786Z,17.66
2023-04-29T14:53:37.564Z,17.85
2023-04-29T14:56:04.377Z,18.04
2023-04-29T14:58:31.160Z,18.00
2023-04-29T15:00:57.797Z,17.73
2023-04-29T15:03:24.642Z,17.61
2023-04-29T15:05:51.940Z,17.53
2023-04-29T15:08:19.678Z,17.52
2023-04-29T15:10:47.858Z,17.27
2023-04-29T15:13:15.110Z,17.10
2023-04-29T15:15:42.158Z,16.97
2023-04-29T15:18:09.171Z,16.90
2023-04-29T15:20:37.140Z,17.03
2023-04-29T15:23:04.834Z,16.96
2023-04-29T15:25:33.737Z,16.61
2023-04-29T15:28:01.478Z,16.64
2023-04-29T15:30:28.169Z,16.44
2023-04-29T15:32:55.507Z,16.36
2023-04-29T15:35:22.216Z,16.41
2023-04-29T15:37:49.157Z,16.40
2023-04-29T15:40:16.996Z,16.27
2023-04-29T15:42:43.766Z,16.23
2023-04-29T15:45:10.999Z,16.22
2023-04-29T15:47:37.680Z,16.28
2023-04-29T15:50:04.889Z,16.19
2023-04-29T15:52:31.664Z,16.21
2023-04-29T15:54:58.462Z,16.14
2023-04-29T15:57:25.998Z,16.35
2023-04-29T15:59:52.977Z,16.37
2023-04-29T16:02:21.203Z,16.34
2023-04-29T16:04:48.068Z,16.25
2023-04-29T16:07:14.787Z,16.08
2023-04-29T16:09:41.457Z,16.04
2023-04-29T16:12:08.774Z,16.09
2023-04-29T16:14:35.414Z,16.07
2023-04-29T16:17:02.251Z,15.97
2023-04-29T16:19:29.057Z,15.80
2023-04-29T16:21:55.787Z,15.82
2023-04-29T16:24:22.865Z,15.90
2023-04-29T16:26:50.871Z,15.89
2023-04-29T16:29:18.361Z,15.83
2023-04-29T16:31:45.217Z,15.77
2023-04-29T16:34:12.487Z,15.62
2023-04-29T16:36:39.399Z,15.72
2023-04-29T16:39:07.683Z,15.68
2023-04-29T16:41:34.582Z,15.45
2023-04-29T16:44:01.171Z,15.28
2023-04-29T16:46:28.082Z,15.05
2023-04-29T16:48:56.887Z,14.76
2023-04-29T16:51:27.500Z,14.60
2023-04-29T16:53:54.887Z,14.57
2023-04-29T16:56:24.498Z,14.46
2023-04-29T16:58:51.724Z,14.45
2023-04-29T17:01:19.804Z,14.44
2023-04-29T17:03:48.059Z,14.24
2023-04-29T17:06:16.098Z,14.12
2023-04-29T17:08:44.329Z,14.11
2023-04-29T17:11:11.098Z,13.92
2023-04-29T17:13:37.757Z,14.03
2023-04-29T17:16:04.829Z,14.08
2023-04-29T17:18:31.527Z,14.11
2023-04-29T17:20:58.296Z,14.13
2023-04-29T17:23:25.072Z,14.11
2023-04-29T17:25:52.836Z,14.11
2023-04-29T17:28:19.864Z,13.96
2023-04-29T17:30:46.613Z,14.04
2023-04-29T17:33:14.268Z,13.98
2023-04-29T17:35:41.231Z,14.06
2023-04-29T17:38:08.096Z,14.01
2023-04-29T17:40:34.753Z,14.03
2023-04-29T17:43:01.617Z,14.01
2023-04-29T17:45:28.294Z,14.09
2023-04-29T17:47:55.699Z,14.17
2023-04-29T17:50:22.376Z,14.21
2023-04-29T17:52:48.987Z,14.26
2023-04-29T17:55:15.618Z,14.32
2023-04-29T17:57:42.275Z,14.27
2023-04-29T18:00:09.758Z,14.25
2023-04-29T18:02:37.314Z,14.13
2023-04-29T18:05:04.509Z,14.13
2023-04-29T18:07:31.244Z,14.06
2023-04-29T18:09:58.643Z,13.88
2023-04-29T18:12:25.652Z,13.90
2023-04-29T18:14:52.367Z,13.82
2023-04-29T18:17:19.917Z,13.90
2023-04-29T18:19:48.803Z,13.99
2023-04-29T18:22:16.160Z,13.93
2023-04-29T18:24:43.383Z,13.93
2023-04-29T18:27:10.201Z,13.97
2023-04-29T18:29:36.782Z,14.04
2023-04-29T18:32:05.715Z,13.91
2023-04-29T18:34:34.143Z,14.01
2023-04-29T18:37:01.516Z,13.95
2023-04-29T18:39:28.103Z,14.00
2023-04-29T18:41:54.894Z,13.95
2023-04-29T18:44:21.522Z,13.93
2023-04-29T18:46:48.152Z,13.80
2023-04-29T18:49:17.019Z,14.01
2023-04-29T18:51:47.578Z,14.06
2023-04-29T18:54:16.106Z,14.00
2023-04-29T18:56:46.563Z,14.00
2023-04-29T18:59:16.625Z,13.98
2023-04-29T19:01:43.568Z,13.88
2023-04-29T19:04:10.458Z,14.06
2023-04-29T19:06:37.681Z,14.00
2023-04-29T19:09:08.473Z,14.09
2023-04-29T19:11:35.218Z,14.13
2023-04-29T19:14:03.980Z,14.09
2023-04-29T19:16:30.627Z,14.08
2023-04-29T19:18:57.570Z,13.87
2023-04-29T19:21:24.806Z,13.74
2023-04-29T19:23:51.613Z,13.57
2023-04-29T19:26:18.228Z,13.49
2023-04-29T19:28:46.061Z,13.41
2023-04-29T19:31:12.785Z,13.26
2023-04-29T19:33:39.598Z,12.89
2023-04-29T19:36:06.707Z,12.98
2023-04-29T19:38:34.060Z,13.01
2023-04-29T19:41:00.877Z,13.07
2023-04-29T19:43:27.593Z,13.07
2023-04-29T19:45:56.016Z,13.04
2023-04-29T19:48:22.690Z,13.09
2023-04-29T19:50:49.582Z,12.95
2023-04-29T19:53:16.338Z,12.96
2023-04-29T19:55:43.068Z,12.91
2023-04-29T19:58:10.472Z,12.84
2023-04-29T20:00:37.381Z,12.70
2023-04-29T20:03:04.128Z,12.78
2023-04-29T20:05:31.018Z,12.75
2023-04-29T20:07:57.679Z,12.75
2023-04-29T20:10:25.068Z,12.82
2023-04-29T20:12:53.046Z,12.75
2023-04-29T20:15:19.731Z,12.80
2023-04-29T20:17:46.764Z,12.83
2023-04-29T20:20:13.629Z,12.74
2023-04-29T20:22:43.943Z,12.84
2023-04-29T20:25:12.626Z,12.78
2023-04-29T20:27:39.823Z,12.82
2023-04-29T20:30:07.194Z,12.95
2023-04-29T20:32:33.769Z,13.00
2023-04-29T20:35:00.352Z,13.01
2023-04-29T20:37:27.061Z,13.07
2023-04-29T20:39:53.918Z,13.08
2023-04-29T20:42:21.046Z,13.03
2023-04-29T20:44:47.618Z,13.07
2023-04-29T20:47:14.333Z,13.01
2023-04-29T20:49:41.020Z,12.93
2023-04-29T20:52:07.681Z,12.75
2023-04-29T20:54:34.648Z,12.78
2023-04-29T20:57:04.816Z,12.86
2023-04-29T20:59:32.922Z,12.77
2023-04-29T21:01:59.773Z,12.72
2023-04-29T21:04:26.534Z,12.65
2023-04-29T21:06:53.230Z,12.58
2023-04-29T21:09:20.491Z,12.22
2023-04-29T21:11:48.211Z,12.32
2023-04-29T21:14:14.862Z,12.21
2023-04-29T21:16:42.473Z,12.05
2023-04-29T21:19:09.129Z,12.09
2023-04-29T21:21:35.779Z,12.06
2023-04-29T21:24:03.117Z,12.00
2023-04-29T21:26:29.787Z,12.14
2023-04-29T21:28:56.506Z,12.14
2023-04-29T21:31:23.217Z,12.20
2023-04-29T21:33:49.867Z,12.21
2023-04-29T21:36:16.591Z,12.23
2023-04-29T21:38:43.202Z,12.22
2023-04-29T21:41:27.382Z,12.21
2023-04-29T21:44:01.947Z,12.21
2023-04-29T21:46:29.148Z,12.25
2023-04-29T21:48:57.795Z,12.23
2023-04-29T21:51:24.634Z,12.22
2023-04-29T21:53:51.360Z,12.11
2023-04-29T21:56:18.594Z,12.13
2023-04-29T21:58:45.714Z,12.20
2023-04-29T22:01:39.845Z,12.14
2023-04-29T22:04:06.710Z,12.19
2023-04-29T22:06:34.565Z,12.18
2023-04-29T22:09:01.604Z,12.19
2023-04-29T22:11:28.443Z,12.13
2023-04-29T22:13:55.143Z,12.24
2023-04-29T22:16:23.545Z,12.13
2023-04-29T22:18:50.568Z,12.04
2023-04-29T22:21:18.013Z,12.00
2023-04-29T22:23:45.013Z,11.99
2023-04-29T22:26:11.640Z,11.81
2023-04-29T22:28:38.291Z,11.82
2023-04-29T22:31:05.009Z,11.79
2023-04-29T22:33:31.854Z,11.69
2023-04-29T22:35:58.424Z,11.62
2023-04-29T22:38:25.127Z,11.67
2023-04-29T22:40:52.911Z,11.57
2023-04-29T22:43:19.599Z,11.50
2023-04-29T22:45:53.320Z,11.44
2023-04-29T22:48:20.688Z,11.37
2023-04-29T22:50:57.298Z,11.28
2023-04-29T22:53:23.972Z,11.14
2023-04-29T22:55:55.871Z,11.05
2023-04-29T22:58:25.401Z,11.01
2023-04-29T23:00:54.700Z,10.91
2023-04-29T23:03:21.458Z,10.89
2023-04-29T23:05:48.417Z,10.84
2023-04-29T23:08:15.062Z,10.79
2023-04-29T23:10:41.841Z,10.76
2023-04-29T23:13:08.618Z,10.71
2023-04-29T23:15:35.712Z,10.69
2023-04-29T23:18:02.431Z,10.51
2023-04-29T23:20:29.529Z,10.49
2023-04-29T23:22:56.166Z,10.51
2023-04-29T23:25:22.873Z,10.33
2023-04-29T23:27:49.461Z,10.27
2023-04-29T23:30:16.155Z,10.24
2023-04-29T23:32:42.853Z,10.20
2023-04-29T23:35:11.593Z,10.11
2023-04-29T23:37:38.873Z,10.17
2023-04-29T23:40:07.126Z,10.05
2023-04-29T23:42:33.853Z,10.06
2023-04-29T23:45:00.655Z,10.11
2023-04-29T23:47:27.289Z,10.10
2023-04-29T23:49:54.137Z,10.09
2023-04-29T23:52:20.882Z,10.03
2023-04-29T23:54:47.470Z,10.04
2023-04-29T23:57:14.110Z,10.08
2023-04-29T23:59:42.477Z,10.05
